Time;durP1;ratioP1;P1;durP2;ratioP2;P2;SDS_P1;SDS_P2;PMS_P1;PMS_P2;Temp;Humidity;BMP_temperature;BMP_pressure;BME280_temperature;BME280_humidity;BME280_pressure;Samples;Min_cycle;Max_cycle;Signal;HPM_P1;HPM_P2
2023/05/12 00:00:06;;;;;;;14.20;10.98;;;;;;;11.70;100.00;101529.03;6153111;23;20065;-80
2023/05/12 00:02:32;;;;;;;13.98;11.63;;;;;;;11.64;100.00;101524.66;6152829;23;20023;-79
2023/05/12 00:04:57;;;;;;;16.73;10.60;;;;;;;11.61;100.00;101520.31;6154045;23;20036;-80
2023/05/12 00:07:23;;;;;;;12.95;10.23;;;;;;;11.56;100.00;101522.06;6153330;23;20010;-80
2023/05/12 00:09:48;;;;;;;12.30;9.48;;;;;;;11.47;100.00;101524.75;6153830;23;20109;-79
2023/05/12 00:12:14;;;;;;;11.25;9.18;;;;;;;11.42;100.00;101524.78;6129536;23;20010;-79
2023/05/12 00:14:39;;;;;;;11.82;8.20;;;;;;;11.32;100.00;101523.06;6128484;23;20451;-79
2023/05/12 00:17:05;;;;;;;10.85;9.05;;;;;;;11.31;100.00;101520.47;6129229;23;20001;-79
2023/05/12 00:19:32;;;;;;;11.35;8.43;;;;;;;11.25;100.00;101523.97;6153855;23;20012;-79
2023/05/12 00:21:58;;;;;;;11.48;8.70;;;;;;;11.24;100.00;101520.47;6153807;23;20014;-79
2023/05/12 00:24:24;;;;;;;11.38;9.07;;;;;;;11.20;100.00;101518.72;6153126;23;20013;-79
2023/05/12 00:26:49;;;;;;;11.23;9.00;;;;;;;11.17;100.00;101516.13;6178604;23;20005;-80
2023/05/12 00:29:17;;;;;;;13.10;8.82;;;;;;;11.14;100.00;101524.00;6152749;23;20033;-79
2023/05/12 00:31:42;;;;;;;12.93;9.32;;;;;;;11.11;100.00;101513.53;6153551;23;20017;-79
2023/05/12 00:34:08;;;;;;;13.75;9.48;;;;;;;11.09;100.00;101518.78;6153592;23;20100;-72
2023/05/12 00:36:33;;;;;;;13.48;9.73;;;;;;;11.08;100.00;101516.16;6153182;23;20092;-73
2023/05/12 00:38:58;;;;;;;13.90;9.80;;;;;;;11.07;100.00;101507.41;6128182;23;20385;-73
2023/05/12 00:41:24;;;;;;;12.48;9.65;;;;;;;11.07;100.00;101511.78;6103809;23;20455;-72
2023/05/12 00:43:50;;;;;;;14.88;10.13;;;;;;;11.05;100.00;101509.16;6103920;23;20024;-73
2023/05/12 00:46:16;;;;;;;13.63;9.48;;;;;;;11.03;100.00;101515.28;6152681;23;20336;-73
2023/05/12 00:48:43;;;;;;;13.60;9.88;;;;;;;11.00;100.00;101510.06;6128998;23;20017;-79
2023/05/12 00:51:08;;;;;;;13.13;10.18;;;;;;;10.98;100.00;101504.81;6152734;23;20100;-79
2023/05/12 00:53:34;;;;;;;12.13;10.82;;;;;;;10.94;100.00;101505.69;6177727;23;20041;-79
2023/05/12 00:56:00;;;;;;;14.63;11.25;;;;;;;10.96;100.00;101503.06;6128805;23;20006;-79
2023/05/12 00:58:25;;;;;;;14.38;11.45;;;;;;;10.90;100.00;101499.59;6128417;23;20013;-80
2023/05/12 01:00:51;;;;;;;15.40;13.23;;;;;;;10.93;100.00;101498.69;6129053;23;20095;-79
2023/05/12 01:03:17;;;;;;;16.08;12.45;;;;;;;10.91;100.00;101497.84;6152800;23;20005;-80
2023/05/12 01:05:52;;;;;;;18.38;12.80;;;;;;;10.90;100.00;101498.72;6152829;23;20017;-80
2023/05/12 01:08:18;;;;;;;18.33;13.52;;;;;;;10.93;100.00;101498.69;6152602;23;20088;-80
2023/05/12 01:10:45;;;;;;;17.45;12.75;;;;;;;10.91;100.00;101496.06;6154711;23;20446;-81
2023/05/12 01:13:10;;;;;;;19.35;13.40;;;;;;;10.87;100.00;101486.47;6127948;23;20348;-72
2023/05/12 01:15:41;;;;;;;17.65;13.27;;;;;;;10.89;100.00;101489.13;6129035;23;20021;-72
2023/05/12 01:18:09;;;;;;;18.55;13.82;;;;;;;10.88;100.00;101492.63;6153699;23;20362;-72
2023/05/12 01:20:36;;;;;;;17.05;12.77;;;;;;;10.86;100.00;101483.84;6153542;23;20013;-72
2023/05/12 01:23:02;;;;;;;17.55;13.57;;;;;;;10.84;100.00;101488.25;6152857;23;20013;-72
2023/05/12 01:25:31;;;;;;;16.05;12.90;;;;;;;10.85;100.00;101490.88;6153267;23;20005;-72
2023/05/12 01:27:57;;;;;;;17.00;13.98;;;;;;;10.81;100.00;101489.13;6152368;23;20013;-72
2023/05/12 01:30:23;;;;;;;16.17;13.00;;;;;;;10.80;100.00;101476.03;6153387;23;20009;-73
2023/05/12 01:32:50;;;;;;;18.50;14.20;;;;;;;10.82;100.00;101487.34;6128536;23;20014;-73
2023/05/12 01:35:16;;;;;;;16.23;13.02;;;;;;;10.75;100.00;101490.00;6153306;23;20427;-72
2023/05/12 01:37:41;;;;;;;17.63;13.32;;;;;;;10.74;100.00;101474.28;6121112;23;20128;-72
2023/05/12 01:40:07;;;;;;;15.82;12.20;;;;;;;10.70;100.00;101472.53;6103688;23;20017;-72
2023/05/12 01:42:33;;;;;;;17.17;13.55;;;;;;;10.68;100.00;101477.78;6127947;23;20103;-72
2023/05/12 01:44:58;;;;;;;17.73;12.35;;;;;;;10.65;100.00;101476.94;6152072;23;20010;-72
2023/05/12 01:47:23;;;;;;;16.20;12.57;;;;;;;10.63;100.00;101476.94;6128345;23;20017;-72
2023/05/12 01:49:49;;;;;;;18.98;13.77;;;;;;;10.60;100.00;101473.44;6128273;23;20339;-72
2023/05/12 01:52:15;;;;;;;16.60;13.00;;;;;;;10.60;100.00;101471.69;6152189;23;20009;-72
2023/05/12 01:54:40;;;;;;;15.50;12.68;;;;;;;10.58;100.00;101476.06;6128059;23;20010;-72
2023/05/12 01:57:06;;;;;;;15.82;11.90;;;;;;;10.57;100.00;101463.81;6152633;23;20005;-72
2023/05/12 01:59:31;;;;;;;16.08;11.90;;;;;;;10.54;100.00;101463.84;6127792;23;20443;-72
2023/05/12 02:01:56;;;;;;;12.73;9.90;;;;;;;10.52;100.00;101465.59;6126717;23;20039;-72
2023/05/12 02:04:22;;;;;;;14.30;10.00;;;;;;;10.51;100.00;101469.09;6152401;23;20036;-72
2023/05/12 02:06:47;;;;;;;12.82;9.25;;;;;;;10.47;100.00;101467.34;6127949;23;20424;-72
2023/05/12 02:09:13;;;;;;;10.70;8.55;;;;;;;10.43;100.00;101465.59;6127928;23;20013;-72
2023/05/12 02:11:38;;;;;;;12.40;8.93;;;;;;;10.41;100.00;101465.59;6103570;23;20344;-72
2023/05/12 02:14:04;;;;;;;11.55;8.55;;;;;;;10.42;100.00;101463.88;6152080;23;20402;-72
2023/05/12 02:16:29;;;;;;;12.13;8.80;;;;;;;10.38;100.00;101457.75;6152312;23;20015;-72
2023/05/12 02:18:55;;;;;;;11.35;8.48;;;;;;;10.36;100.00;101457.75;6152247;23;20412;-72
2023/05/12 02:21:20;;;;;;;11.70;8.25;;;;;;;10.35;100.00;101453.38;6152637;23;20427;-72
2023/05/12 02:23:46;;;;;;;9.82;7.28;;;;;;;10.33;100.00;101452.50;6127575;23;20108;-72
2023/05/12 02:26:11;;;;;;;10.90;7.05;;;;;;;10.34;100.00;101453.38;6152445;23;20401;-71
2023/05/12 02:28:37;;;;;;;10.40;6.95;;;;;;;10.31;100.00;101451.59;6127974;23;20063;-71
2023/05/12 02:31:03;;;;;;;9.35;6.47;;;;;;;10.29;100.00;101442.03;6128459;23;20017;-70
2023/05/12 02:33:29;;;;;;;9.68;6.32;;;;;;;10.28;100.00;101446.38;6152266;23;20017;-70
2023/05/12 02:35:54;;;;;;;8.63;5.90;;;;;;;10.28;100.00;101445.50;6128048;23;20020;-70
2023/05/12 02:38:20;;;;;;;9.57;5.85;;;;;;;10.27;100.00;101449.88;6152054;23;20026;-70
2023/05/12 02:40:46;;;;;;;8.98;5.43;;;;;;;10.25;100.00;101441.13;6127898;23;20041;-71
2023/05/12 02:43:12;;;;;;;7.97;5.32;;;;;;;10.22;100.00;101433.28;6127610;23;20077;-71
2023/05/12 02:45:37;;;;;;;8.32;5.05;;;;;;;10.22;100.00;101423.66;6127606;23;20014;-71
2023/05/12 02:48:03;;;;;;;7.97;5.32;;;;;;;10.24;100.00;101426.28;6128066;23;20317;-70
2023/05/12 02:50:29;;;;;;;8.63;5.95;;;;;;;10.22;100.00;101422.81;6128726;23;20075;-71
2023/05/12 02:52:54;;;;;;;8.73;5.72;;;;;;;10.19;100.00;101415.81;6153838;23;20391;-71
2023/05/12 02:55:20;;;;;;;10.38;5.07;;;;;;;10.22;100.00;101425.44;6129820;23;20013;-71
2023/05/12 02:57:45;;;;;;;6.85;5.13;;;;;;;10.23;100.00;101422.81;6154913;23;20028;-71
2023/05/12 03:00:11;;;;;;;8.15;4.88;;;;;;;10.20;100.00;101416.69;6130049;23;20031;-71
2023/05/12 03:02:37;;;;;;;7.68;5.53;;;;;;;10.19;100.00;101420.19;6130215;23;20077;-71
2023/05/12 03:05:04;;;;;;;8.30;5.18;;;;;;;10.19;100.00;101417.56;6129994;23;20043;-71
2023/05/12 03:07:30;;;;;;;7.40;5.07;;;;;;;10.19;100.00;101421.06;6129139;23;20009;-71
2023/05/12 03:09:56;;;;;;;9.52;5.25;;;;;;;10.20;100.00;101417.56;6129378;23;20010;-71
2023/05/12 03:12:21;;;;;;;8.23;5.10;;;;;;;10.19;100.00;101414.97;6129996;23;20037;-71
2023/05/12 03:14:47;;;;;;;7.82;5.50;;;;;;;10.19;100.00;101413.19;6129564;23;20010;-71
2023/05/12 03:17:12;;;;;;;8.93;5.57;;;;;;;10.21;100.00;101411.47;6130106;23;20016;-71
2023/05/12 03:19:38;;;;;;;8.50;5.72;;;;;;;10.20;100.00;101409.72;6130035;23;20072;-71
2023/05/12 03:22:06;;;;;;;10.68;6.63;;;;;;;10.22;100.00;101414.94;6128958;23;20100;-71
2023/05/12 03:24:32;;;;;;;8.93;6.30;;;;;;;10.21;100.00;101406.22;6153457;23;20005;-70
2023/05/12 03:26:57;;;;;;;11.07;6.85;;;;;;;10.20;100.00;101401.84;6154428;23;20490;-71
2023/05/12 03:29:23;;;;;;;11.55;7.03;;;;;;;10.25;100.00;101404.47;6104872;23;20036;-71
2023/05/12 03:31:49;;;;;;;11.70;7.20;;;;;;;10.23;100.00;101401.00;6128989;23;20013;-71
2023/05/12 03:34:14;;;;;;;12.63;8.07;;;;;;;10.25;100.00;101398.38;6129062;23;20016;-70
2023/05/12 03:36:40;;;;;;;14.40;8.02;;;;;;;10.24;100.00;101392.22;6154279;23;20017;-71
2023/05/12 03:39:07;;;;;;;16.95;10.23;;;;;;;10.25;100.00;101396.59;6153453;23;20440;-70
2023/05/12 03:41:33;;;;;;;15.52;8.65;;;;;;;10.26;100.00;101394.84;6153567;23;20377;-78
2023/05/12 03:43:58;;;;;;;16.15;9.73;;;;;;;10.26;100.00;101384.38;6128448;23;20044;-78
2023/05/12 03:46:24;;;;;;;16.88;9.90;;;;;;;10.26;100.00;101382.63;6129503;23;20013;-79
2023/05/12 03:48:49;;;;;;;19.50;11.25;;;;;;;10.30;100.00;101392.25;6129007;23;20009;-70
2023/05/12 03:51:15;;;;;;;19.98;11.15;;;;;;;10.31;100.00;101383.50;6153856;23;20063;-70
2023/05/12 03:53:44;;;;;;;20.25;11.55;;;;;;;10.32;100.00;101387.84;6129075;23;20104;-70
2023/05/12 03:56:09;;;;;;;20.83;12.07;;;;;;;10.31;100.00;101377.38;6130095;23;20013;-70
2023/05/12 03:58:35;;;;;;;24.67;12.68;;;;;;;10.33;100.00;101381.75;6154055;23;20088;-72
2023/05/12 04:01:01;;;;;;;21.85;11.60;;;;;;;10.34;100.00;101382.66;6128759;23;20005;-71
2023/05/12 04:03:27;;;;;;;24.52;12.63;;;;;;;10.36;100.00;101379.16;6104882;23;20064;-71
2023/05/12 04:06:03;;;;;;;25.05;13.50;;;;;;;10.36;100.00;101380.91;6102621;23;20013;-70
2023/05/12 04:08:28;;;;;;;24.73;13.15;;;;;;;10.39;100.00;101376.53;6128911;23;20009;-71
2023/05/12 04:10:56;;;;;;;29.40;14.25;;;;;;;10.40;100.00;101385.25;6104911;23;20377;-71
2023/05/12 04:13:22;;;;;;;28.58;14.82;;;;;;;10.41;100.00;101384.38;6128769;23;20021;-71
2023/05/12 04:15:48;;;;;;;29.27;15.20;;;;;;;10.43;100.00;101385.25;6129238;23;20072;-71
2023/05/12 04:18:14;;;;;;;29.30;15.50;;;;;;;10.46;100.00;101389.59;6153264;23;20009;-71
2023/05/12 04:20:39;;;;;;;33.45;16.63;;;;;;;10.45;100.00;101390.50;6103915;23;20009;-71
2023/05/12 04:23:05;;;;;;;33.75;17.52;;;;;;;10.47;100.00;101391.34;6152832;23;20096;-71
2023/05/12 04:25:30;;;;;;;38.00;19.15;;;;;;;10.48;100.00;101396.59;6128594;23;20068;-79
2023/05/12 04:27:56;;;;;;;34.47;18.08;;;;;;;10.49;100.00;101392.25;6127711;23;20388;-79
2023/05/12 04:30:21;;;;;;;39.70;19.38;;;;;;;10.49;100.00;101389.63;6154523;23;20013;-79
2023/05/12 04:32:47;;;;;;;40.58;19.95;;;;;;;10.51;100.00;101395.72;6128972;23;20010;-79
2023/05/12 04:35:13;;;;;;;41.20;20.48;;;;;;;10.53;100.00;101393.94;6128472;23;20605;-78
2023/05/12 04:37:38;;;;;;;44.42;21.13;;;;;;;10.53;100.00;101389.59;6126718;23;20033;-79
2023/05/12 04:40:06;;;;;;;44.08;22.00;;;;;;;10.55;100.00;101387.84;6101611;23;20783;-79
2023/05/12 04:42:31;;;;;;;42.13;22.83;;;;;;;10.56;100.00;101394.81;6127818;23;20033;-79
2023/05/12 04:44:56;;;;;;;42.45;22.60;;;;;;;10.59;100.00;101393.94;6127639;23;20036;-79
2023/05/12 04:47:22;;;;;;;44.60;22.42;;;;;;;10.62;100.00;101395.69;6152703;23;20105;-79
2023/05/12 04:49:47;;;;;;;47.70;24.42;;;;;;;10.64;100.00;101400.03;6102822;23;20020;-79
2023/05/12 04:52:13;;;;;;;45.65;24.30;;;;;;;10.66;100.00;101394.78;6126690;23;20009;-79
2023/05/12 04:54:38;;;;;;;50.35;24.90;;;;;;;10.65;100.00;101393.06;6126477;23;20428;-78
2023/05/12 04:57:04;;;;;;;44.13;24.23;;;;;;;10.68;100.00;101393.91;6127809;23;20009;-79
2023/05/12 04:59:30;;;;;;;44.72;24.25;;;;;;;10.70;100.00;101396.53;6126579;23;20012;-71
2023/05/12 05:01:56;;;;;;;50.70;25.30;;;;;;;10.73;100.00;101401.75;6128274;23;20511;-71
2023/05/12 05:04:21;;;;;;;50.22;26.00;;;;;;;10.75;100.00;101403.50;6127414;23;20013;-71
2023/05/12 05:06:47;;;;;;;50.97;24.90;;;;;;;10.78;100.00;101409.63;6127809;23;20005;-71
2023/05/12 05:09:13;;;;;;;50.58;25.55;;;;;;;10.80;100.00;101413.09;6103426;23;20435;-71
2023/05/12 05:11:39;;;;;;;47.10;26.23;;;;;;;10.84;100.00;101410.44;6103810;23;20010;-71
2023/05/12 05:14:06;;;;;;;50.45;26.10;;;;;;;10.85;100.00;101409.59;6103121;23;20016;-71
2023/05/12 05:16:33;;;;;;;49.72;26.70;;;;;;;10.88;100.00;101419.19;6104421;23;20021;-71
2023/05/12 05:18:58;;;;;;;49.67;27.25;;;;;;;10.89;100.00;101419.19;6103079;23;20009;-72
2023/05/12 05:21:23;;;;;;;52.00;26.27;;;;;;;10.92;100.00;101413.06;6102432;23;20080;-79
2023/05/12 05:23:49;;;;;;;51.60;26.65;;;;;;;10.97;100.00;101419.13;6152437;23;20288;-80
2023/05/12 05:26:14;;;;;;;51.75;26.80;;;;;;;11.01;100.00;101438.38;6127642;23;20009;-72
2023/05/12 05:28:40;;;;;;;51.03;27.88;;;;;;;11.04;100.00;101438.34;6127256;23;20013;-71
2023/05/12 05:31:05;;;;;;;49.35;27.40;;;;;;;11.07;100.00;101440.97;6127932;23;20428;-71
2023/05/12 05:33:31;;;;;;;50.13;28.17;;;;;;;11.11;100.00;101439.22;6127668;23;20093;-71
2023/05/12 05:35:57;;;;;;;53.58;28.70;;;;;;;11.16;100.00;101437.44;6127192;23;20357;-71
2023/05/12 05:38:22;;;;;;;52.50;28.77;;;;;;;11.19;100.00;101432.16;6125908;23;20021;-72
2023/05/12 05:40:49;;;;;;;57.40;29.25;;;;;;;11.28;100.00;101445.25;6127053;23;20005;-72
2023/05/12 05:43:14;;;;;;;50.92;29.58;;;;;;;11.32;100.00;101444.34;6126330;23;20087;-72
2023/05/12 05:45:40;;;;;;;48.55;27.52;;;;;;;11.35;100.00;101449.59;6127662;23;20443;-72
2023/05/12 05:48:05;;;;;;;49.60;28.95;;;;;;;11.42;100.00;101446.03;6127439;23;20068;-72
2023/05/12 05:50:31;;;;;;;47.53;27.98;;;;;;;11.46;100.00;101448.66;6127199;23;20339;-72
2023/05/12 05:52:56;;;;;;;48.63;29.38;;;;;;;11.55;100.00;101461.69;6151648;23;20095;-71
2023/05/12 05:55:22;;;;;;;47.30;29.80;;;;;;;11.64;100.00;101460.78;6127652;23;20028;-71
2023/05/12 05:57:47;;;;;;;44.85;27.50;;;;;;;11.71;100.00;101465.09;6127692;23;20006;-72
2023/05/12 06:00:14;;;;;;;49.03;29.00;;;;;;;11.79;100.00;101466.81;6151823;23;20033;-72
2023/05/12 06:02:43;;;;;;;48.78;29.67;;;;;;;11.89;100.00;101464.13;6102928;23;20397;-72
2023/05/12 06:05:08;;;;;;;46.75;29.05;;;;;;;11.96;100.00;101474.59;6151268;23;20064;-72
2023/05/12 06:07:34;;;;;;;46.08;29.73;;;;;;;12.05;100.00;101472.78;6127221;23;20043;-72
2023/05/12 06:09:59;;;;;;;43.13;28.38;;;;;;;12.15;100.00;101476.22;6126985;23;20013;-72
2023/05/12 06:12:25;;;;;;;46.42;28.80;;;;;;;12.24;100.00;101482.28;6127681;23;20013;-72
2023/05/12 06:14:50;;;;;;;39.25;26.55;;;;;;;12.33;100.00;101494.47;6127581;23;20013;-72
2023/05/12 06:17:16;;;;;;;39.30;26.05;;;;;;;12.40;100.00;101490.03;6127629;23;20009;-72
2023/05/12 06:19:47;;;;;;;40.47;27.33;;;;;;;12.47;100.00;101497.84;6101806;23;20416;-72
2023/05/12 06:22:15;;;;;;;38.70;27.67;;;;;;;12.55;100.00;101504.78;6127177;23;20527;-71
2023/05/12 06:24:41;;;;;;;36.58;25.10;;;;;;;12.64;100.00;101499.41;6127684;23;20009;-72
2023/05/12 06:27:07;;;;;;;29.77;23.63;;;;;;;12.69;100.00;101497.63;6129997;23;20064;-72
2023/05/12 06:29:33;;;;;;;27.27;21.52;;;;;;;12.71;100.00;101510.75;6128855;23;20398;-72
2023/05/12 06:31:58;;;;;;;29.55;22.70;;;;;;;12.78;100.00;101513.31;6129937;23;20024;-72
2023/05/12 06:34:24;;;;;;;26.30;21.90;;;;;;;12.82;100.00;101508.91;6130032;23;20399;-72
2023/05/12 06:36:49;;;;;;;25.88;22.08;;;;;;;12.88;100.00;101510.59;6130374;23;20432;-72
2023/05/12 06:39:15;;;;;;;27.48;21.95;;;;;;;13.02;100.00;101513.94;6128710;23;20025;-72
2023/05/12 06:41:41;;;;;;;27.58;22.23;;;;;;;13.04;100.00;101514.78;6130103;23;20018;-72
2023/05/12 06:44:11;;;;;;;27.50;22.38;;;;;;;13.13;100.00;101517.31;6154370;23;20520;-72
2023/05/12 06:46:37;;;;;;;26.77;21.48;;;;;;;13.23;100.00;101522.47;6130062;23;20033;-72
2023/05/12 06:49:03;;;;;;;24.58;20.67;;;;;;;13.33;100.00;101534.63;6130509;23;20029;-72
2023/05/12 06:51:28;;;;;;;26.92;20.95;;;;;;;13.39;100.00;101531.09;6128983;23;20009;-73
2023/05/12 06:53:54;;;;;;;23.67;19.40;;;;;;;13.47;100.00;101535.34;6105605;23;20029;-73
2023/05/12 06:56:20;;;;;;;25.98;19.20;;;;;;;13.53;97.79;101539.66;6154846;23;20001;-74
2023/05/12 06:58:46;;;;;;;23.42;18.45;;;;;;;13.61;97.47;101542.22;6105415;23;20014;-72
2023/05/12 07:01:12;;;;;;;20.77;18.25;;;;;;;13.66;97.60;101545.66;6154695;23;20017;-74
2023/05/12 07:03:37;;;;;;;21.67;17.83;;;;;;;13.72;97.44;101550.84;6129640;23;20092;-72
2023/05/12 07:06:03;;;;;;;19.75;17.05;;;;;;;13.75;97.27;101548.19;6129036;23;20405;-73
2023/05/12 07:08:28;;;;;;;19.48;14.82;;;;;;;13.82;96.70;101555.09;6153975;23;20106;-74
2023/05/12 07:10:54;;;;;;;19.80;15.35;;;;;;;13.89;95.21;101568.19;6128143;23;20014;-73
2023/05/12 07:13:19;;;;;;;16.92;14.13;;;;;;;13.87;92.99;101549.75;6128546;23;20427;-74
2023/05/12 07:15:45;;;;;;;16.42;13.90;;;;;;;13.97;93.42;101543.47;6129839;23;20014;-72
2023/05/12 07:18:10;;;;;;;17.15;14.57;;;;;;;14.11;93.40;101558.22;6129667;23;20022;-73
2023/05/12 07:20:37;;;;;;;14.57;12.85;;;;;;;14.27;93.07;101553.59;6129724;23;20064;-75
2023/05/12 07:23:03;;;;;;;14.98;12.95;;;;;;;14.44;90.66;101548.00;6129150;23;20020;-73
2023/05/12 07:25:28;;;;;;;14.38;12.90;;;;;;;14.71;93.66;101544.06;6130149;23;20018;-73
2023/05/12 07:27:54;;;;;;;14.57;11.75;;;;;;;14.85;90.78;101551.75;6129567;23;20036;-73
2023/05/12 07:30:21;;;;;;;13.40;11.68;;;;;;;15.02;90.61;101554.94;6105728;23;20029;-74
2023/05/12 07:32:47;;;;;;;13.30;11.23;;;;;;;15.09;88.86;101550.41;6130170;23;20014;-73
2023/05/12 07:35:12;;;;;;;13.15;11.35;;;;;;;15.27;88.78;101570.31;6129482;23;20376;-72
2023/05/12 07:37:38;;;;;;;12.57;10.23;;;;;;;15.40;87.12;101565.63;6129152;23;20009;-73
2023/05/12 07:40:04;;;;;;;13.32;9.77;;;;;;;15.54;86.77;101566.25;6103826;23;20021;-73
2023/05/12 07:42:29;;;;;;;17.45;9.25;;;;;;;15.49;83.42;101565.47;6129616;23;20462;-80
2023/05/12 07:44:55;;;;;;;10.73;9.02;;;;;;;15.50;84.56;101567.22;6129167;23;20010;-79
2023/05/12 07:47:20;;;;;;;10.18;8.45;;;;;;;15.38;81.31;101563.03;6130073;23;20078;-79
2023/05/12 07:49:46;;;;;;;9.00;7.88;;;;;;;15.30;80.45;101570.25;6128759;23;20032;-80
2023/05/12 07:52:11;;;;;;;10.18;8.68;;;;;;;15.37;81.23;101561.31;6129286;23;20013;-79
2023/05/12 07:54:37;;;;;;;10.38;9.38;;;;;;;15.33;82.39;101564.91;6129074;23;20013;-79
2023/05/12 07:57:03;;;;;;;10.80;9.65;;;;;;;15.39;84.10;101563.91;6153491;23;20009;-80
2023/05/12 07:59:28;;;;;;;9.93;8.93;;;;;;;15.45;82.27;101560.28;6124787;23;20020;-72
2023/05/12 08:01:54;;;;;;;11.00;8.90;;;;;;;15.49;81.42;101570.75;6055329;23;20009;-77
2023/05/12 08:04:19;;;;;;;9.82;8.82;;;;;;;15.58;79.50;101570.53;6104658;23;20465;-73
2023/05/12 08:06:55;;;;;;;10.02;9.02;;;;;;;15.68;81.69;101586.22;6087536;23;20022;-71
2023/05/12 08:09:20;;;;;;;9.10;7.78;;;;;;;15.52;78.09;101589.16;6119957;22;20330;-76
2023/05/12 08:14:36;;;;;;;8.43;7.10;;;;;;;15.54;80.96;101582.09;6157409;22;20040;31
2023/05/12 08:17:01;;;;;;;9.52;6.97;;;;;;;15.68;80.01;101584.44;6178450;22;20048;-74
2023/05/12 08:19:29;;;;;;;17.98;7.43;;;;;;;15.70;78.35;101590.56;6149779;22;20453;-72
2023/05/12 08:21:55;;;;;;;7.25;6.25;;;;;;;15.93;78.14;101595.38;6109139;23;20022;-78
2023/05/12 08:24:20;;;;;;;6.97;5.35;;;;;;;15.80;76.06;101593.88;6088859;22;1182025;-72
2023/05/12 08:26:46;;;;;;;6.07;5.28;;;;;;;15.76;74.69;101594.84;6132002;22;20079;-74
2023/05/12 08:29:11;;;;;;;8.23;5.55;;;;;;;15.72;73.17;101603.75;6126449;22;20021;-77
2023/05/12 08:34:12;;;;;;;7.25;5.05;;;;;;;15.83;75.00;101599.13;6154084;23;20024;-72
2023/05/12 08:36:38;;;;;;;6.07;4.25;;;;;;;15.70;74.27;101594.97;6125205;22;20017;-79
2023/05/12 08:39:04;;;;;;;6.15;4.47;;;;;;;15.81;74.18;101602.72;6153592;23;20095;-77
2023/05/12 08:44:02;;;;;;;6.20;4.20;;;;;;;16.32;76.52;101598.91;6159662;22;20030;-77
2023/05/12 08:46:30;;;;;;;8.30;4.90;;;;;;;16.48;72.99;101607.34;6112741;23;20024;-76
2023/05/12 08:49:00;;;;;;;6.32;4.40;;;;;;;16.62;73.75;101607.88;6143144;23;20136;-75
2023/05/12 08:51:27;;;;;;;8.60;5.13;;;;;;;16.77;72.86;101620.72;6145983;23;20021;-73
2023/05/12 08:53:56;;;;;;;5.20;4.43;;;;;;;16.78;74.49;101618.97;6157641;23;20021;-81
2023/05/12 08:56:21;;;;;;;6.65;5.28;;;;;;;16.79;72.86;101611.00;6132968;23;20067;-78
2023/05/12 08:58:47;;;;;;;7.93;5.25;;;;;;;16.80;72.64;101614.50;6107719;23;20013;-77
2023/05/12 09:01:14;;;;;;;6.78;4.63;;;;;;;16.78;71.94;101627.78;6132403;23;20079;-74
2023/05/12 09:03:40;;;;;;;5.72;4.00;;;;;;;16.84;71.56;101621.47;6154600;23;20004;-76
2023/05/12 09:06:07;;;;;;;6.07;4.50;;;;;;;16.78;71.04;101614.53;6182998;23;20005;-72
2023/05/12 09:08:35;;;;;;;4.72;4.10;;;;;;;16.97;69.93;101627.34;6131376;23;20019;-77
2023/05/12 09:11:01;;;;;;;4.30;3.90;;;;;;;17.15;70.62;101623.31;6133511;23;20406;-76
2023/05/12 09:16:52;;;;;;;5.00;4.13;;;;;;;17.26;69.29;101623.91;6162434;22;20026;-73
2023/05/12 09:19:20;;;;;;;5.18;4.32;;;;;;;17.43;71.71;101633.19;6101133;23;20016;-74
2023/05/12 09:21:46;;;;;;;4.78;3.72;;;;;;;17.42;67.39;101626.13;6098053;23;20005;-74
2023/05/12 09:29:47;;;;;;;;;;;;;;;17.48;68.69;101628.59;6168070;22;20274;-78
2023/05/12 09:32:12;;;;;;;4.68;3.42;;;;;;;17.40;67.69;101607.63;6145157;23;19908;-74
2023/05/12 09:34:39;;;;;;;5.25;3.72;;;;;;;17.36;66.44;101613.94;6153853;23;20059;-78
2023/05/12 09:39:40;;;;;;;4.13;2.90;;;;;;;16.99;66.40;101637.88;6182632;22;20373;-76
2023/05/12 09:42:11;;;;;;;4.32;3.25;;;;;;;17.08;67.71;101645.56;6158858;22;20040;-75
2023/05/12 09:44:37;;;;;;;10.15;3.97;;;;;;;17.11;68.08;101632.25;6157094;22;20021;-76
2023/05/12 09:47:08;;;;;;;8.65;3.50;;;;;;;17.27;68.49;101627.44;6148491;23;20025;-72
2023/05/12 09:49:34;;;;;;;5.90;3.53;;;;;;;17.38;66.91;101624.47;6131703;22;20020;-78
2023/05/12 09:52:00;;;;;;;7.32;3.85;;;;;;;17.40;65.39;101622.66;6112591;23;20126;-72
2023/05/12 09:54:27;;;;;;;6.28;3.95;;;;;;;17.58;68.81;101640.69;6118116;23;20351;-80
2023/05/12 09:56:57;;;;;;;4.78;3.80;;;;;;;17.62;66.74;101647.63;6098814;23;20491;-77
2023/05/12 09:59:25;;;;;;;5.38;3.85;;;;;;;17.89;71.28;101645.09;6097952;23;20400;-79
2023/05/12 10:01:52;;;;;;;7.55;3.53;;;;;;;17.82;65.50;101651.50;6075072;23;20352;-80
2023/05/12 10:04:19;;;;;;;5.07;3.92;;;;;;;17.84;63.92;101639.06;6046451;23;20021;-78
2023/05/12 10:06:46;;;;;;;4.57;3.63;;;;;;;17.88;66.75;101637.19;6069336;23;20038;-78
2023/05/12 10:09:34;;;;;;;5.45;3.67;;;;;;;18.00;66.23;101643.03;6069265;23;20476;-80
2023/05/12 10:12:05;;;;;;;6.35;3.83;;;;;;;18.00;64.68;101643.03;6070450;23;20120;-78
2023/05/12 10:14:30;;;;;;;4.03;3.28;;;;;;;17.89;64.52;101650.41;6070278;23;20326;-80
2023/05/12 10:16:58;;;;;;;4.75;3.50;;;;;;;17.90;63.91;101648.63;6093969;23;20004;-80
2023/05/12 10:19:25;;;;;;;4.10;3.42;;;;;;;17.89;65.16;101650.41;6046388;23;20011;-81
2023/05/12 10:21:50;;;;;;;3.55;2.88;;;;;;;17.76;65.87;101646.38;6070273;23;20097;-78
2023/05/12 10:24:16;;;;;;;4.53;3.67;;;;;;;17.72;64.16;101658.00;6069794;23;20092;-83
2023/05/12 10:26:43;;;;;;;6.13;3.80;;;;;;;17.73;63.25;101652.63;6094042;23;20026;-80
2023/05/12 10:29:09;;;;;;;7.13;3.90;;;;;;;17.62;65.49;101654.72;6093989;23;20006;-78
2023/05/12 10:31:39;;;;;;;5.78;4.05;;;;;;;17.59;66.23;101655.69;6093874;23;20016;-79
2023/05/12 10:34:05;;;;;;;4.18;3.60;;;;;;;17.57;63.78;101662.81;6070276;23;20014;-77
2023/05/12 10:36:41;;;;;;;6.13;3.88;;;;;;;17.49;65.31;101644.47;6068750;23;20006;-77
2023/05/12 10:39:09;;;;;;;4.15;3.55;;;;;;;17.36;65.31;101652.81;6094002;23;20334;-77
2023/05/12 10:41:34;;;;;;;5.63;3.60;;;;;;;17.26;64.98;101657.47;6094177;23;20010;-78
2023/05/12 10:44:00;;;;;;;5.53;3.90;;;;;;;17.20;63.43;101673.53;6093694;23;20068;-77
2023/05/12 10:46:26;;;;;;;6.43;3.53;;;;;;;17.16;63.72;101680.69;6093561;23;20093;-77
2023/05/12 10:48:59;;;;;;;5.30;3.67;;;;;;;17.11;65.29;101674.63;6069949;23;20025;-74
2023/05/12 10:51:28;;;;;;;6.93;4.10;;;;;;;17.16;65.11;101672.72;6068652;23;20046;-74
2023/05/12 10:54:02;;;;;;;5.50;3.80;;;;;;;17.33;66.94;101667.00;6094299;23;20318;-74
2023/05/12 10:56:35;;;;;;;3.90;3.42;;;;;;;17.45;67.26;101668.44;6099255;23;20013;-75
2023/05/12 10:59:22;;;;;;;6.30;4.53;;;;;;;17.64;64.01;101684.69;6123604;23;20093;-75
2023/05/12 11:02:01;;;;;;;5.38;3.72;;;;;;;17.67;62.88;101666.94;6122562;23;20008;-74
2023/05/12 11:04:54;;;;;;;5.50;3.85;;;;;;;17.78;64.01;101682.50;6122655;23;20084;-75
2023/05/12 11:07:28;;;;;;;4.70;3.97;;;;;;;17.88;63.83;101653.97;6121154;23;20037;-73
2023/05/12 11:09:57;;;;;;;4.80;4.30;;;;;;;18.06;64.77;101684.41;6122819;23;20018;-74
2023/05/12 11:12:25;;;;;;;4.75;4.00;;;;;;;18.16;65.07;101669.09;6124359;23;20093;-74
2023/05/12 11:14:51;;;;;;;6.50;3.97;;;;;;;18.23;61.83;101680.38;6124457;23;20059;-74
2023/05/12 11:17:17;;;;;;;5.65;4.03;;;;;;;18.17;62.10;101678.78;6124846;23;20005;-75
2023/05/12 11:19:51;;;;;;;7.65;4.55;;;;;;;18.09;59.86;101678.16;6123311;23;20052;-77
2023/05/12 11:22:19;;;;;;;6.13;4.25;;;;;;;18.17;61.83;101684.97;6124245;23;20045;-75
2023/05/12 11:24:46;;;;;;;6.45;3.63;;;;;;;18.18;64.10;101677.88;6124223;23;20092;-76
2023/05/12 11:27:13;;;;;;;4.75;3.80;;;;;;;18.30;60.73;101681.94;6100165;23;20013;-74